Time;durP1;ratioP1;P1;durP2;ratioP2;P2;SDS_P1;SDS_P2;PMS_P1;PMS_P2;Temp;Humidity;BMP_temperature;BMP_pressure;BME280_temperature;BME280_humidity;BME280_pressure;Samples;Min_cycle;Max_cycle;Signal;HPM_P1;HPM_P2
2023/01/20 00:00:37;;;;;;;29.77;15.27;;;;;;;2.29;90.61;100992.44;5013487;28;20105;-62
2023/01/20 00:03:02;;;;;;;28.52;15.57;;;;;;;2.25;90.57;100998.34;5013509;28;20041;-62
2023/01/20 00:05:28;;;;;;;33.67;15.95;;;;;;;2.23;90.79;101000.00;5013781;28;20503;-63
2023/01/20 00:07:53;;;;;;;26.88;14.35;;;;;;;2.20;91.00;101005.94;4995922;28;20030;-63
2023/01/20 00:10:19;;;;;;;28.33;15.40;;;;;;;2.18;90.64;101010.19;5013422;28;20075;-63
2023/01/20 00:12:44;;;;;;;25.27;15.20;;;;;;;2.19;90.55;101008.50;5013337;28;20030;-63
2023/01/20 00:15:10;;;;;;;29.77;15.70;;;;;;;2.12;90.99;101014.22;5013357;28;20030;-63
2023/01/20 00:17:36;;;;;;;27.20;15.45;;;;;;;2.09;91.88;101024.50;5013314;28;20511;-63
2023/01/20 00:20:02;;;;;;;25.60;15.43;;;;;;;2.10;91.40;101024.59;5013328;28;20072;-63
2023/01/20 00:22:28;;;;;;;26.05;15.15;;;;;;;2.08;91.14;101023.59;5013554;28;20026;-63
2023/01/20 00:24:53;;;;;;;28.00;15.40;;;;;;;2.02;90.97;101025.06;5013525;28;20026;-63
2023/01/20 00:27:18;;;;;;;27.27;16.15;;;;;;;2.02;91.76;101038.06;5013219;28;20033;-63
2023/01/20 00:29:45;;;;;;;28.85;15.73;;;;;;;2.05;92.01;101033.00;5013240;28;20084;-63
2023/01/20 00:32:11;;;;;;;29.00;16.63;;;;;;;2.07;92.15;101040.06;5013207;28;20030;-63
2023/01/20 00:34:36;;;;;;;31.25;18.15;;;;;;;2.02;91.12;101033.75;5013461;28;20032;-62
2023/01/20 00:37:01;;;;;;;31.30;16.90;;;;;;;2.03;92.32;101040.75;4995726;28;20084;-64
2023/01/20 00:39:27;;;;;;;31.25;17.00;;;;;;;2.06;91.74;101040.91;5014143;28;20060;-63
2023/01/20 00:41:52;;;;;;;32.60;18.23;;;;;;;2.03;91.32;101038.13;5016977;28;20113;-63
2023/01/20 00:44:17;;;;;;;30.85;16.70;;;;;;;1.99;91.64;101042.31;4999449;28;20029;-63
2023/01/20 00:46:43;;;;;;;29.67;15.82;;;;;;;1.98;92.45;101050.06;5016972;28;20403;-63
2023/01/20 00:49:11;;;;;;;28.23;15.40;;;;;;;2.00;92.20;101043.19;5016648;28;20092;-63
2023/01/20 00:51:36;;;;;;;31.48;15.68;;;;;;;2.03;92.56;101045.06;5016845;28;20029;-63
2023/01/20 00:54:02;;;;;;;27.30;14.80;;;;;;;2.01;91.24;101039.75;5016827;28;20361;-63
2023/01/20 00:56:27;;;;;;;31.02;15.75;;;;;;;2.02;91.61;101043.28;5016721;28;20030;-63
2023/01/20 00:58:54;;;;;;;28.85;15.85;;;;;;;1.95;92.28;101049.91;5016629;28;20068;-63
2023/01/20 01:01:20;;;;;;;31.58;16.15;;;;;;;1.93;92.26;101039.41;5016660;28;20029;-63
2023/01/20 01:03:45;;;;;;;34.35;16.13;;;;;;;1.87;92.47;101041.72;5016581;28;20022;-63
2023/01/20 01:06:16;;;;;;;31.58;16.17;;;;;;;1.87;92.50;101046.03;5016477;28;20024;-63
2023/01/20 01:08:42;;;;;;;30.75;17.13;;;;;;;1.75;92.73;101047.19;5016590;28;20058;-63
2023/01/20 01:11:09;;;;;;;33.85;17.10;;;;;;;1.65;93.22;101044.97;5016372;28;20030;-63
2023/01/20 01:13:37;;;;;;;33.78;17.20;;;;;;;1.60;92.93;101046.47;4999308;28;20026;-65
2023/01/20 01:16:03;;;;;;;33.45;16.88;;;;;;;1.54;93.77;101050.47;5016624;28;20026;-63
2023/01/20 01:18:28;;;;;;;38.28;19.45;;;;;;;1.42;94.04;101048.16;5016360;28;20026;-63
2023/01/20 01:20:54;;;;;;;34.17;17.77;;;;;;;1.44;94.01;101054.31;5016243;28;20127;-63
2023/01/20 01:23:19;;;;;;;34.85;16.92;;;;;;;1.46;94.38;101061.41;5016225;28;20030;-63
2023/01/20 01:25:45;;;;;;;34.63;17.52;;;;;;;1.51;94.55;101066.84;5016147;28;20057;-63
2023/01/20 01:28:10;;;;;;;32.88;16.83;;;;;;;1.57;94.59;101076.66;5016413;28;20060;-63
2023/01/20 01:30:35;;;;;;;33.30;16.52;;;;;;;1.63;93.87;101077.00;5016163;28;20033;-63
2023/01/20 01:33:01;;;;;;;35.80;17.33;;;;;;;1.64;93.60;101079.66;5016085;28;20538;-63
2023/01/20 01:35:26;;;;;;;30.42;15.77;;;;;;;1.72;94.08;101080.03;5015955;28;20041;-63
2023/01/20 01:37:52;;;;;;;32.05;16.95;;;;;;;1.73;93.61;101076.63;5015881;28;20030;-63
2023/01/20 01:40:17;;;;;;;32.60;17.40;;;;;;;1.66;93.57;101077.13;5016187;28;20029;-63
2023/01/20 01:42:42;;;;;;;35.67;16.00;;;;;;;1.64;93.30;101084.88;5015891;28;20475;-64
2023/01/20 01:45:11;;;;;;;29.85;15.18;;;;;;;1.68;93.96;101085.91;5015867;28;20030;-64
2023/01/20 01:47:51;;;;;;;33.60;16.33;;;;;;;1.69;93.72;101088.59;5015619;28;20045;-63
2023/01/20 01:50:22;;;;;;;28.80;14.75;;;;;;;1.73;93.78;101087.94;5015780;28;20472;-63
2023/01/20 01:52:51;;;;;;;35.22;15.55;;;;;;;1.74;93.30;101081.91;5014988;28;20097;-63
2023/01/20 01:55:19;;;;;;;30.98;15.77;;;;;;;1.72;93.72;101090.47;5015758;28;20022;-63
2023/01/20 01:57:46;;;;;;;33.05;15.77;;;;;;;1.75;93.61;101095.81;5015558;28;20076;-63
2023/01/20 02:00:12;;;;;;;30.10;15.25;;;;;;;1.69;93.35;101082.50;4997955;28;20028;-64
2023/01/20 02:02:38;;;;;;;33.40;16.52;;;;;;;1.78;93.04;101089.88;5015622;28;20042;-63
2023/01/20 02:05:04;;;;;;;33.72;16.25;;;;;;;1.80;93.20;101090.81;4998017;28;20037;-63
2023/01/20 02:07:32;;;;;;;31.55;15.18;;;;;;;1.80;93.48;101091.75;5015711;28;20533;-64
2023/01/20 02:09:59;;;;;;;36.50;16.83;;;;;;;1.81;93.66;101090.94;5015363;28;20065;-63
2023/01/20 02:12:24;;;;;;;32.00;14.60;;;;;;;1.80;94.00;101088.22;5015373;28;20030;-63
2023/01/20 02:14:53;;;;;;;34.85;15.48;;;;;;;1.81;93.92;101090.03;5015276;28;20037;-64
2023/01/20 02:17:28;;;;;;;34.83;16.50;;;;;;;1.87;94.11;101087.72;5015075;28;20574;-63
2023/01/20 02:19:54;;;;;;;37.25;16.63;;;;;;;1.92;92.95;101084.50;5015070;28;20034;-63
2023/01/20 02:22:23;;;;;;;38.35;17.90;;;;;;;1.93;93.28;101090.66;5015076;28;20490;-63
2023/01/20 02:24:55;;;;;;;35.35;16.83;;;;;;;1.94;92.87;101092.44;5015075;28;20101;-63
2023/01/20 02:27:57;;;;;;;39.28;16.77;;;;;;;1.93;92.65;101090.66;5015131;28;20037;-64
2023/01/20 02:30:28;;;;;;;41.00;16.65;;;;;;;1.88;92.71;101090.38;5015050;28;20037;-63
2023/01/20 02:32:58;;;;;;;39.72;16.48;;;;;;;1.77;93.14;101095.91;5014956;28;20034;-64
2023/01/20 02:35:34;;;;;;;34.13;15.85;;;;;;;1.75;93.70;101101.91;5015253;28;20026;-63
2023/01/20 02:38:30;;;;;;;33.15;15.18;;;;;;;1.76;93.98;101100.22;5014803;28;20029;-63
2023/01/20 02:41:15;;;;;;;37.03;16.75;;;;;;;1.73;93.64;101102.66;5014789;28;20053;-64
2023/01/20 02:43:40;;;;;;;36.60;15.68;;;;;;;1.71;93.83;101109.50;5014950;28;20021;-63
2023/01/20 02:46:19;;;;;;;33.65;16.17;;;;;;;1.74;93.92;101110.53;5014946;28;20096;-64
2023/01/20 02:49:00;;;;;;;34.92;14.63;;;;;;;1.74;94.29;101107.94;5014442;28;20038;-64
2023/01/20 02:51:31;;;;;;;29.40;15.23;;;;;;;1.76;93.33;101102.84;5014873;28;20026;-63
2023/01/20 02:54:04;;;;;;;33.22;14.63;;;;;;;1.67;93.20;101094.53;5014647;28;20140;-63
2023/01/20 02:56:32;;;;;;;33.50;14.73;;;;;;;1.68;92.94;101104.16;5014782;28;20380;-64
2023/01/20 02:59:05;;;;;;;31.98;14.30;;;;;;;1.64;93.66;101113.53;5014352;28;20539;-63
2023/01/20 03:01:35;;;;;;;30.60;14.35;;;;;;;1.63;93.94;101103.03;5014750;28;20117;-63
2023/01/20 03:04:04;;;;;;;34.17;14.88;;;;;;;1.63;93.27;101113.44;5013475;28;20120;-63
2023/01/20 03:06:35;;;;;;;32.58;14.73;;;;;;;1.53;93.44;101106.84;5014351;28;20403;-63
2023/01/20 03:09:06;;;;;;;34.35;15.02;;;;;;;1.41;93.75;101103.63;5014278;28;20053;-63
2023/01/20 03:11:35;;;;;;;32.35;13.90;;;;;;;1.35;94.23;101108.53;5014321;28;20037;-63
2023/01/20 03:14:09;;;;;;;29.45;14.23;;;;;;;1.29;94.70;101103.91;5014151;28;20033;-63
2023/01/20 03:16:35;;;;;;;37.17;15.57;;;;;;;1.32;94.90;101111.84;5014261;28;20068;-64
2023/01/20 03:19:01;;;;;;;32.20;14.63;;;;;;;1.29;95.15;101111.72;5013907;28;20054;-64
2023/01/20 03:21:26;;;;;;;30.90;15.35;;;;;;;1.27;95.65;101112.44;5014357;28;20030;-63
2023/01/20 03:23:58;;;;;;;36.03;15.02;;;;;;;1.24;95.42;101116.69;5014293;28;20030;-64
2023/01/20 03:26:23;;;;;;;33.35;14.18;;;;;;;1.18;95.56;101129.34;5014163;28;20482;-64
2023/01/20 03:28:49;;;;;;;33.05;15.15;;;;;;;1.12;95.25;101123.84;5013968;28;20025;-63
2023/01/20 03:31:28;;;;;;;34.47;15.00;;;;;;;1.16;96.11;101124.91;5013979;28;20022;-63
2023/01/20 03:33:57;;;;;;;27.25;12.90;;;;;;;1.15;95.71;101131.78;5014003;28;20514;-64
2023/01/20 03:36:25;;;;;;;38.35;14.55;;;;;;;1.13;95.85;101122.13;5013823;28;20534;-64
2023/01/20 03:38:52;;;;;;;30.13;14.15;;;;;;;1.15;95.91;101133.50;5013777;28;20029;-64
2023/01/20 03:41:33;;;;;;;32.10;13.90;;;;;;;1.13;95.83;101133.44;5013892;28;20030;-63
2023/01/20 03:44:11;;;;;;;31.25;14.80;;;;;;;1.13;96.19;101130.81;5013792;28;20036;-64
2023/01/20 03:46:46;;;;;;;33.80;14.98;;;;;;;1.08;95.78;101132.28;5013748;28;20022;-63
2023/01/20 03:49:16;;;;;;;31.70;14.52;;;;;;;1.07;96.82;101134.78;5013385;28;20125;-63
2023/01/20 03:51:59;;;;;;;33.00;13.63;;;;;;;1.12;96.63;101135.97;5013638;28;20388;-63
2023/01/20 03:54:36;;;;;;;36.85;15.98;;;;;;;1.11;96.86;101134.16;5013649;28;20479;-64
2023/01/20 03:57:08;;;;;;;31.02;14.63;;;;;;;1.02;96.56;101131.06;5013855;28;20030;-64
2023/01/20 03:59:37;;;;;;;33.58;14.68;;;;;;;1.06;96.94;101133.00;5013589;28;20101;-64
2023/01/20 04:02:06;;;;;;;31.30;14.32;;;;;;;1.13;96.95;101136.03;5013608;28;20105;-64
2023/01/20 04:04:35;;;;;;;36.55;14.95;;;;;;;1.17;96.91;101139.69;5013510;28;20101;-63
2023/01/20 04:07:03;;;;;;;32.95;14.43;;;;;;;1.20;96.88;101138.16;5013644;28;20026;-64
2023/01/20 04:09:33;;;;;;;38.17;16.10;;;;;;;1.18;96.79;101133.66;5013425;28;20050;-63
2023/01/20 04:11:59;;;;;;;33.67;14.95;;;;;;;1.19;96.57;101132.84;5013458;28;20024;-64
2023/01/20 04:14:25;;;;;;;32.92;14.93;;;;;;;1.10;97.02;101134.97;5014270;28;20113;-64
2023/01/20 04:16:53;;;;;;;36.50;15.68;;;;;;;1.15;97.13;101146.50;5017555;28;20057;-64
2023/01/20 04:19:19;;;;;;;39.45;18.48;;;;;;;1.11;97.01;101149.75;5017206;28;20026;-63
2023/01/20 04:22:03;;;;;;;31.05;13.75;;;;;;;1.08;97.20;101147.00;5017352;28;20375;-64
2023/01/20 04:24:48;;;;;;;35.03;15.30;;;;;;;0.98;97.30;101143.88;5017437;28;20428;-64
2023/01/20 04:27:13;;;;;;;39.88;17.35;;;;;;;0.92;97.59;101137.47;5017388;28;20037;-63
2023/01/20 04:29:40;;;;;;;43.53;17.25;;;;;;;0.89;98.50;101146.00;5017488;28;20357;-64
2023/01/20 04:32:05;;;;;;;40.50;18.15;;;;;;;0.88;98.75;101151.13;5017254;28;20077;-64
2023/01/20 04:34:31;;;;;;;42.47;19.10;;;;;;;0.87;98.60;101142.44;5017387;28;20030;-63
2023/01/20 04:36:56;;;;;;;39.38;18.27;;;;;;;0.81;98.74;101136.88;5017355;28;20036;-63
2023/01/20 04:39:22;;;;;;;39.65;16.70;;;;;;;0.87;98.45;101149.34;5017076;28;20057;-64
2023/01/20 04:41:47;;;;;;;38.38;17.40;;;;;;;0.84;98.56;101150.06;4999450;28;20034;-64
2023/01/20 04:44:13;;;;;;;41.95;18.15;;;;;;;0.80;98.61;101149.81;4999364;28;20059;-64
2023/01/20 04:46:38;;;;;;;44.38;17.98;;;;;;;0.80;98.78;101148.09;5017198;28;20022;-63
2023/01/20 04:49:04;;;;;;;39.78;16.95;;;;;;;0.84;98.58;101155.28;4998948;28;20057;-64
2023/01/20 04:51:31;;;;;;;34.22;17.45;;;;;;;0.85;98.30;101159.66;5017055;28;20026;-64
2023/01/20 04:53:58;;;;;;;41.83;17.95;;;;;;;0.86;98.11;101166.66;5016858;28;20026;-64
2023/01/20 04:56:23;;;;;;;42.45;19.05;;;;;;;0.83;98.34;101163.00;5016851;28;20041;-64
2023/01/20 04:58:49;;;;;;;45.70;18.75;;;;;;;0.79;98.72;101167.13;5016670;28;20022;-63
2023/01/20 05:01:14;;;;;;;36.90;16.42;;;;;;;0.80;98.29;101166.31;5016667;28;20376;-63
2023/01/20 05:03:39;;;;;;;39.92;16.20;;;;;;;0.79;98.42;101172.34;5016657;28;20034;-63
2023/01/20 05:06:05;;;;;;;37.42;16.70;;;;;;;0.73;98.34;101166.81;5016579;28;20116;-64
2023/01/20 05:08:31;;;;;;;36.40;16.52;;;;;;;0.73;97.84;101169.41;5016600;28;20045;-63
2023/01/20 05:10:56;;;;;;;38.47;17.05;;;;;;;0.72;98.62;101165.88;5016599;28;20495;-64
2023/01/20 05:13:22;;;;;;;43.30;17.13;;;;;;;0.76;98.85;101161.75;5016413;28;20030;-64
2023/01/20 05:15:47;;;;;;;42.70;17.25;;;;;;;0.77;98.79;101160.94;5016411;28;20040;-64
2023/01/20 05:18:12;;;;;;;39.67;18.15;;;;;;;0.72;98.81;101176.28;5016162;28;20030;-63
2023/01/20 05:20:38;;;;;;;38.65;18.25;;;;;;;0.64;99.21;101168.88;5016419;28;20034;-64
2023/01/20 05:23:04;;;;;;;37.13;15.90;;;;;;;0.63;98.81;101161.88;5016523;28;20057;-64
2023/01/20 05:25:29;;;;;;;36.15;16.80;;;;;;;0.61;97.99;101168.72;5015671;28;20113;-65
2023/01/20 05:27:54;;;;;;;42.17;16.63;;;;;;;0.59;98.18;101176.41;5015635;28;20037;-64
2023/01/20 05:30:20;;;;;;;34.90;15.93;;;;;;;0.63;98.49;101183.59;5016324;28;20022;-64
2023/01/20 05:32:49;;;;;;;36.33;16.50;;;;;;;0.63;98.30;101183.59;5016025;28;20356;-63
2023/01/20 05:35:14;;;;;;;46.80;19.88;;;;;;;0.57;98.38;101175.44;5016259;28;20036;-63
2023/01/20 05:37:39;;;;;;;39.67;16.70;;;;;;;0.55;98.83;101182.25;5015986;28;20446;-63
2023/01/20 05:40:05;;;;;;;41.03;16.85;;;;;;;0.57;99.07;101178.06;5015942;28;20053;-63
2023/01/20 05:42:31;;;;;;;39.58;18.23;;;;;;;0.58;99.31;101181.53;5015788;28;20110;-63
2023/01/20 05:44:57;;;;;;;36.05;16.48;;;;;;;0.55;99.76;101184.84;5015834;28;20400;-63
2023/01/20 05:47:23;;;;;;;37.58;17.05;;;;;;;0.54;99.19;101175.28;5015476;28;20022;-64
2023/01/20 05:50:04;;;;;;;42.47;17.90;;;;;;;0.53;99.14;101183.00;4973029;28;20064;-64
2023/01/20 05:52:29;;;;;;;44.47;18.50;;;;;;;0.52;99.42;101183.81;5015829;28;20034;-64
2023/01/20 05:54:55;;;;;;;38.90;17.13;;;;;;;0.49;99.87;101181.94;5015628;28;20025;-63
2023/01/20 05:57:23;;;;;;;43.25;17.48;;;;;;;0.46;99.52;101177.44;5015520;28;20056;-63
2023/01/20 05:59:50;;;;;;;45.50;17.13;;;;;;;0.50;100.00;101183.72;5015758;28;20036;-63
2023/01/20 06:02:18;;;;;;;39.13;18.17;;;;;;;0.49;100.00;101188.00;5015779;28;20033;-63
2023/01/20 06:04:46;;;;;;;44.28;17.35;;;;;;;0.46;100.00;101186.94;5015572;28;20464;-63
2023/01/20 06:07:12;;;;;;;41.08;15.23;;;;;;;0.43;100.00;101190.28;5015517;28;20018;-64
2023/01/20 06:09:38;;;;;;;39.25;15.82;;;;;;;0.47;100.00;101193.91;5015450;28;20175;-63
2023/01/20 06:12:03;;;;;;;41.80;16.75;;;;;;;0.43;100.00;101194.59;5015510;28;20121;-63
2023/01/20 06:14:29;;;;;;;37.80;16.25;;;;;;;0.43;100.00;101192.00;5015622;28;20072;-63
2023/01/20 06:16:54;;;;;;;40.97;18.15;;;;;;;0.50;100.00;101208.00;5015279;28;20080;-63
2023/01/20 06:19:19;;;;;;;41.45;17.38;;;;;;;0.49;100.00;101205.31;5015219;28;20030;-63
2023/01/20 06:21:46;;;;;;;38.92;16.08;;;;;;;0.48;100.00;101209.63;5015412;28;20030;-64
2023/01/20 06:24:11;;;;;;;42.72;18.42;;;;;;;0.44;100.00;101192.06;5015125;28;20030;-63
2023/01/20 06:26:37;;;;;;;39.92;17.58;;;;;;;0.41;100.00;101188.38;5015103;28;20132;-63
2023/01/20 06:29:02;;;;;;;42.60;17.63;;;;;;;0.48;100.00;101193.13;5015073;28;20506;-63
2023/01/20 06:31:28;;;;;;;39.50;16.13;;;;;;;0.46;100.00;101199.94;5015011;28;20034;-64
2023/01/20 06:33:55;;;;;;;39.70;16.63;;;;;;;0.47;100.00;101201.72;5014881;28;20025;-63
2023/01/20 06:36:20;;;;;;;40.63;15.82;;;;;;;0.43;100.00;101197.19;5014937;28;20030;-63
2023/01/20 06:38:49;;;;;;;45.65;18.42;;;;;;;0.50;100.00;101210.59;5014833;28;20076;-63
2023/01/20 06:41:16;;;;;;;35.90;15.05;;;;;;;0.50;100.00;101205.41;5014744;28;20030;-63
2023/01/20 06:43:42;;;;;;;41.05;16.75;;;;;;;0.56;100.00;101206.53;5014645;28;20034;-64
2023/01/20 06:46:11;;;;;;;40.10;16.67;;;;;;;0.54;100.00;101205.59;5014659;28;20029;-63
2023/01/20 06:48:37;;;;;;;42.88;16.38;;;;;;;0.55;100.00;101197.84;5014315;28;20074;-63
2023/01/20 06:51:05;;;;;;;42.42;17.92;;;;;;;0.53;100.00;101194.28;5014818;28;20038;-64
2023/01/20 06:53:30;;;;;;;39.95;16.27;;;;;;;0.53;100.00;101209.88;5014599;28;20022;-63
2023/01/20 06:55:57;;;;;;;38.80;16.55;;;;;;;0.42;100.00;101192.78;5014579;28;20161;-63
2023/01/20 06:58:24;;;;;;;40.35;16.73;;;;;;;0.46;100.00;101210.34;5014439;28;20026;-64
2023/01/20 07:00:50;;;;;;;42.53;17.60;;;;;;;0.45;100.00;101201.66;5014679;28;20101;-63
2023/01/20 07:03:16;;;;;;;43.92;17.20;;;;;;;0.45;100.00;101203.34;5014626;28;20018;-63
2023/01/20 07:05:41;;;;;;;37.75;17.20;;;;;;;0.44;100.00;101207.66;5014644;28;20528;-64
2023/01/20 07:08:07;;;;;;;42.08;16.85;;;;;;;0.49;100.00;101205.31;5014416;28;20610;-64
2023/01/20 07:10:32;;;;;;;41.08;17.00;;;;;;;0.48;100.00;101204.44;5014281;28;20037;-63
2023/01/20 07:12:57;;;;;;;37.42;17.38;;;;;;;0.49;100.00;101203.63;5014295;28;20541;-63
2023/01/20 07:15:23;;;;;;;40.92;17.05;;;;;;;0.50;100.00;101209.72;5014235;28;20468;-64
2023/01/20 07:17:48;;;;;;;43.70;19.20;;;;;;;0.50;100.00;101208.00;5014023;28;20032;-63
2023/01/20 07:20:14;;;;;;;42.75;17.30;;;;;;;0.53;100.00;101219.41;5014125;28;20379;-64
2023/01/20 07:22:39;;;;;;;43.72;17.05;;;;;;;0.54;100.00;101227.28;5014239;28;20033;-63
2023/01/20 07:25:05;;;;;;;39.13;16.40;;;;;;;0.54;100.00;101232.47;5014074;28;20448;-63
2023/01/20 07:27:30;;;;;;;41.65;17.38;;;;;;;0.52;100.00;101230.63;5014000;28;20030;-63
2023/01/20 07:29:56;;;;;;;38.97;16.85;;;;;;;0.55;100.00;101230.75;5013971;28;20038;-63
2023/01/20 07:32:22;;;;;;;33.47;15.43;;;;;;;0.56;100.00;101227.34;5014133;28;20025;-63
2023/01/20 07:34:47;;;;;;;35.63;15.65;;;;;;;0.56;100.00;101232.53;5013924;28;20057;-64
2023/01/20 07:37:12;;;;;;;42.22;17.90;;;;;;;0.58;100.00;101241.34;5014083;28;20064;-63
2023/01/20 07:39:39;;;;;;;35.78;15.60;;;;;;;0.56;100.00;101242.94;5013807;28;20550;-64
2023/01/20 07:42:05;;;;;;;36.65;16.15;;;;;;;0.54;100.00;101236.78;5013770;28;20026;-63
2023/01/20 07:44:31;;;;;;;40.17;16.27;;;;;;;0.53;100.00;101248.88;5013608;28;20085;-63
2023/01/20 07:46:56;;;;;;;32.10;15.75;;;;;;;0.53;100.00;101248.88;5014047;28;20022;-63
2023/01/20 07:49:21;;;;;;;34.08;15.27;;;;;;;0.48;100.00;101232.13;5012709;28;20073;-64
2023/01/20 07:51:47;;;;;;;42.33;17.25;;;;;;;0.56;100.00;101246.47;5013461;28;20033;-63
2023/01/20 07:54:12;;;;;;;38.28;16.67;;;;;;;0.56;100.00;101246.47;5013863;28;20431;-63
2023/01/20 07:56:38;;;;;;;37.78;16.23;;;;;;;0.58;100.00;101255.25;4996030;28;20505;-64
2023/01/20 07:59:03;;;;;;;34.53;15.77;;;;;;;0.58;100.00;101252.63;5013451;28;20034;-63
2023/01/20 08:01:30;;;;;;;35.45;15.35;;;;;;;0.58;100.00;101255.25;5013519;28;20022;-64
2023/01/20 08:03:59;;;;;;;37.63;16.05;;;;;;;0.57;100.00;101248.25;5013489;28;20109;-64
2023/01/20 08:06:25;;;;;;;37.05;17.10;;;;;;;0.56;100.00;101258.53;5013438;28;20022;-64
2023/01/20 08:08:51;;;;;;;38.42;16.63;;;;;;;0.57;100.00;101253.47;5013445;28;20484;-64
2023/01/20 08:11:19;;;;;;;35.25;15.90;;;;;;;0.55;100.00;101249.84;4995760;28;20026;-64
2023/01/20 08:13:44;;;;;;;34.78;16.02;;;;;;;0.57;100.00;101255.16;5013691;28;20026;-63
2023/01/20 08:16:15;;;;;;;38.50;16.17;;;;;;;0.57;100.00;101253.47;5013580;28;20022;-63
2023/01/20 08:18:41;;;;;;;39.05;16.75;;;;;;;0.53;100.00;101263.59;5013226;28;20069;-64
2023/01/20 08:21:15;;;;;;;39.50;16.67;;;;;;;0.52;100.00;101267.00;5013289;28;20395;-64
2023/01/20 08:23:40;;;;;;;39.97;17.33;;;;;;;0.51;100.00;101263.47;5013381;28;20030;-64
2023/01/20 08:26:06;;;;;;;37.47;17.15;;;;;;;0.48;100.00;101252.94;5013287;28;20041;-64
2023/01/20 08:28:34;;;;;;;38.75;16.73;;;;;;;0.49;100.00;101258.22;5013287;28;20480;-65
2023/01/20 08:31:19;;;;;;;39.00;16.67;;;;;;;0.49;100.00;101258.22;5013237;28;20034;-65
2023/01/20 08:33:45;;;;;;;36.72;16.38;;;;;;;0.46;100.00;101257.13;5013208;28;20034;-64
2023/01/20 08:36:16;;;;;;;33.28;15.40;;;;;;;0.47;100.00;101264.13;5013073;28;20026;-64
2023/01/20 08:38:42;;;;;;;34.88;17.60;;;;;;;0.48;100.00;101264.22;5013116;28;20061;-64
2023/01/20 08:41:11;;;;;;;30.70;13.75;;;;;;;0.48;100.00;101264.22;5013195;28;20065;-65
2023/01/20 08:43:37;;;;;;;30.40;14.73;;;;;;;0.44;100.00;101262.25;5013399;28;20108;-64
2023/01/20 08:46:09;;;;;;;28.10;12.75;;;;;;;0.48;100.00;101265.94;5013372;28;20441;-65
2023/01/20 08:48:35;;;;;;;29.95;15.45;;;;;;;0.47;100.00;101271.91;5012723;28;20105;-65
2023/01/20 08:51:06;;;;;;;31.02;13.25;;;;;;;0.48;100.00;101272.03;5013043;28;20041;-65
2023/01/20 08:53:32;;;;;;;32.60;13.60;;;;;;;0.47;100.00;101274.50;5013218;28;20026;-65
2023/01/20 08:55:59;;;;;;;31.27;14.70;;;;;;;0.48;100.00;101279.81;5013034;28;20380;-66
2023/01/20 08:58:25;;;;;;;27.90;13.40;;;;;;;0.47;100.00;101282.31;5012942;28;20060;-65
2023/01/20 09:00:51;;;;;;;26.88;12.23;;;;;;;0.46;100.00;101280.53;5014712;28;20053;-66
2023/01/20 09:03:16;;;;;;;25.92;13.38;;;;;;;0.47;100.00;101274.50;5016628;28;20100;-65
2023/01/20 09:05:42;;;;;;;26.08;13.15;;;;;;;0.47;100.00;101280.63;5016489;28;20109;-65
2023/01/20 09:08:07;;;;;;;27.08;13.43;;;;;;;0.48;100.00;101291.94;5016494;28;20033;-65
2023/01/20 09:10:33;;;;;;;28.48;13.68;;;;;;;0.47;100.00;101291.03;5016820;28;20062;-66
2023/01/20 09:12:59;;;;;;;30.42;14.35;;;;;;;0.47;100.00;101296.25;5016511;28;20040;-65
2023/01/20 09:15:24;;;;;;;29.75;14.30;;;;;;;0.50;100.00;101300.69;5016426;28;20018;-66
2023/01/20 09:17:50;;;;;;;29.25;13.85;;;;;;;0.50;100.00;101287.69;5016203;28;20049;-65
2023/01/20 09:20:15;;;;;;;30.65;15.77;;;;;;;0.50;100.00;101292.91;5016329;28;20037;-65
2023/01/20 09:22:41;;;;;;;27.23;13.40;;;;;;;0.47;100.00;101298.84;5016327;28;20064;-65
2023/01/20 09:25:08;;;;;;;31.83;14.07;;;;;;;0.47;100.00;101292.72;5016505;28;20037;-66
2023/01/20 09:27:33;;;;;;;28.17;13.68;;;;;;;0.47;100.00;101293.63;5016303;28;20033;-65
2023/01/20 09:29:59;;;;;;;25.80;13.75;;;;;;;0.49;100.00;101297.22;5016224;28;20033;-65
2023/01/20 09:32:24;;;;;;;26.23;13.45;;;;;;;0.48;100.00;101298.03;5016060;28;20025;-65
2023/01/20 09:34:49;;;;;;;26.27;13.45;;;;;;;0.48;100.00;101300.63;5016134;28;20057;-64
2023/01/20 09:45:47;;;;;;;19.33;11.10;;;;;;;0.51;100.00;101297.28;5016206;28;20045;-65
2023/01/20 09:54:25;;;;;;;26.25;13.60;;;;;;;0.50;100.00;101299.00;5016003;28;20553;-64
2023/01/20 09:56:53;;;;;;;27.25;14.27;;;;;;;0.46;100.00;101297.03;5016147;28;20026;-64
2023/01/20 09:59:26;;;;;;;24.75;13.25;;;;;;;0.50;100.00;101282.50;5015768;28;20030;-64
2023/01/20 10:01:56;;;;;;;26.17;13.13;;;;;;;0.52;100.00;101287.81;5015793;28;20108;-64
2023/01/20 10:04:31;;;;;;;29.75;14.80;;;;;;;0.54;100.00;101292.28;5015816;28;20022;-64
2023/01/20 10:07:26;;;;;;;28.40;13.25;;;;;;;0.55;100.00;101303.56;5015528;28;20464;-65
2023/01/20 10:10:19;;;;;;;23.73;13.45;;;;;;;0.57;100.00;101292.47;5002213;28;20038;-64
2023/01/20 10:12:50;;;;;;;24.58;12.40;;;;;;;0.56;100.00;101300.16;5007037;28;20180;-64
2023/01/20 10:15:21;;;;;;;25.42;13.10;;;;;;;0.50;100.00;101290.31;5015453;28;20041;-64
2023/01/20 10:17:47;;;;;;;24.92;12.73;;;;;;;0.52;100.00;101298.22;5015082;28;20045;-64
2023/01/20 10:20:40;;;;;;;25.23;13.15;;;;;;;0.55;100.00;101298.38;5015253;28;20022;-65
2023/01/20 10:23:47;;;;;;;25.20;12.60;;;;;;;0.47;100.00;101291.03;5015251;28;20021;-65
2023/01/20 10:26:39;;;;;;;22.15;11.93;;;;;;;0.45;100.00;101290.03;5014673;28;20133;-64
2023/01/20 10:29:11;;;;;;;25.27;13.65;;;;;;;0.47;100.00;101297.91;5014689;28;20056;-65
2023/01/20 10:31:43;;;;;;;;;;;;;;;0.49;100.00;101305.00;5014267;28;20394;-65
2023/01/20 10:34:14;;;;;;;20.50;11.05;;;;;;;0.47;100.00;101293.63;5015257;28;19913;-65
2023/01/20 10:36:43;;;;;;;20.73;11.15;;;;;;;0.46;100.00;101302.22;5015310;28;20037;-64
2023/01/20 10:39:40;;;;;;;22.33;11.77;;;;;;;0.45;100.00;101292.63;5014865;28;20109;-65
2023/01/20 10:42:15;;;;;;;20.60;11.02;;;;;;;0.50;100.00;101293.78;4961570;28;20482;-65
2023/01/20 10:44:40;;;;;;;17.52;10.18;;;;;;;0.52;100.00;101293.91;5015080;28;20084;-65
2023/01/20 10:47:36;;;;;;;20.23;9.98;;;;;;;0.49;100.00;101294.59;5014717;28;20018;-65
2023/01/20 10:50:19;;;;;;;17.50;9.60;;;;;;;0.50;100.00;101293.78;5014512;28;20057;-66
2023/01/20 10:52:53;;;;;;;16.83;9.27;;;;;;;0.55;100.00;101303.56;5014651;28;20022;-64
2023/01/20 10:55:19;;;;;;;19.25;10.30;;;;;;;0.57;100.00;101299.38;5014552;28;20033;-64
2023/01/20 10:58:00;;;;;;;17.52;10.20;;;;;;;0.55;100.00;101296.66;5014387;28;20088;-63
2023/01/20 11:00:30;;;;;;;17.38;10.52;;;;;;;0.56;100.00;101290.69;5014609;28;20387;-66
2023/01/20 11:03:01;;;;;;;19.02;9.90;;;;;;;0.56;100.00;101295.88;5014471;28;20034;-64
2023/01/20 11:05:29;;;;;;;16.58;10.02;;;;;;;0.60;100.00;101289.13;5014543;28;20032;-64
2023/01/20 11:07:57;;;;;;;18.02;10.35;;;;;;;0.61;100.00;101303.94;5014387;28;20033;-65
2023/01/20 11:10:25;;;;;;;16.35;10.30;;;;;;;0.62;100.00;101297.94;5014569;28;20030;-65
2023/01/20 11:12:54;;;;;;;16.55;8.95;;;;;;;0.64;100.00;101297.22;5014273;28;20057;-66
2023/01/20 11:15:23;;;;;;;18.23;10.95;;;;;;;0.62;100.00;101301.41;5014229;28;20044;-65
2023/01/20 11:18:30;;;;;;;16.65;9.60;;;;;;;0.62;100.00;101308.31;5013963;28;20040;-65
2023/01/20 11:21:03;;;;;;;15.30;8.80;;;;;;;0.70;100.00;101307.06;5008709;28;20038;-65
2023/01/20 11:23:56;;;;;;;16.23;8.90;;;;;;;0.74;100.00;101307.34;5013888;28;20032;-64
2023/01/20 11:26:26;;;;;;;13.10;8.32;;;;;;;0.77;100.00;101303.09;4994771;28;20121;-64
2023/01/20 11:28:57;;;;;;;14.68;8.90;;;;;;;0.79;100.00;101311.91;4994468;28;20113;-66
2023/01/20 11:31:47;;;;;;;15.40;8.45;;;;;;;0.82;100.00;101312.09;4994322;28;20388;-65
2023/01/20 11:34:22;;;;;;;14.40;8.55;;;;;;;0.81;100.00;101313.75;4994323;28;20032;-65
2023/01/20 11:36:49;;;;;;;12.93;7.78;;;;;;;0.84;100.00;101308.75;4994462;28;20113;-65